createdAt,value
2022-12-16T00:02:18.776Z,90.59
2022-12-16T00:04:57.583Z,90.67
2022-12-16T00:07:27.663Z,90.59
2022-12-16T00:09:55.985Z,90.57
2022-12-16T00:12:24.395Z,90.30
2022-12-16T00:14:55.050Z,90.68
2022-12-16T00:17:23.442Z,91.05
2022-12-16T00:19:51.886Z,90.82
2022-12-16T00:22:20.493Z,90.47
2022-12-16T00:24:48.869Z,90.68
2022-12-16T00:27:17.180Z,90.65
2022-12-16T00:29:45.556Z,90.77
2022-12-16T00:32:15.272Z,90.90
2022-12-16T00:34:43.619Z,90.61
2022-12-16T00:37:13.318Z,90.72
2022-12-16T00:39:41.645Z,90.48
2022-12-16T00:42:09.969Z,90.66
2022-12-16T00:44:38.268Z,90.56
2022-12-16T00:47:06.656Z,90.73
2022-12-16T00:49:36.949Z,90.86
2022-12-16T00:52:05.679Z,90.93
2022-12-16T00:54:33.990Z,91.00
2022-12-16T00:57:02.300Z,90.92
2022-12-16T00:59:30.610Z,90.84
2022-12-16T01:01:59.140Z,91.33
2022-12-16T01:04:27.784Z,91.16
2022-12-16T01:06:57.456Z,90.85
2022-12-16T01:09:25.854Z,91.18
2022-12-16T01:11:54.216Z,90.92
2022-12-16T01:14:23.593Z,90.95
2022-12-16T01:16:52.076Z,90.97
2022-12-16T01:19:23.102Z,90.94
2022-12-16T01:21:51.485Z,91.03
2022-12-16T01:24:22.046Z,91.36
2022-12-16T01:26:50.381Z,91.19
2022-12-16T01:29:19.042Z,91.23
2022-12-16T01:31:47.422Z,90.78
2022-12-16T01:34:17.001Z,91.14
2022-12-16T01:36:45.323Z,91.14
2022-12-16T01:39:13.748Z,91.05
2022-12-16T01:41:43.424Z,91.40
2022-12-16T01:44:14.679Z,91.27
2022-12-16T01:46:44.619Z,91.09
2022-12-16T01:49:26.414Z,91.05
2022-12-16T01:51:57.594Z,91.02
2022-12-16T01:54:31.473Z,91.09
2022-12-16T01:57:05.044Z,90.95
2022-12-16T01:59:36.951Z,90.95
2022-12-16T02:02:06.051Z,91.40
2022-12-16T02:04:34.454Z,91.27
2022-12-16T02:07:03.050Z,91.60
2022-12-16T02:09:31.471Z,91.21
2022-12-16T02:12:17.438Z,91.41
2022-12-16T02:15:04.479Z,91.47
2022-12-16T02:17:42.274Z,91.44
2022-12-16T02:20:23.887Z,91.29
2022-12-16T02:23:10.643Z,91.45
2022-12-16T02:26:11.503Z,91.62
2022-12-16T02:29:08.230Z,91.11
2022-12-16T02:31:44.272Z,91.31
2022-12-16T02:34:22.574Z,91.15
2022-12-16T02:37:06.751Z,91.52
2022-12-16T02:39:40.814Z,91.33
2022-12-16T02:42:15.903Z,91.57
2022-12-16T02:44:54.448Z,91.40
2022-12-16T02:47:24.986Z,91.57
2022-12-16T02:49:55.134Z,91.68
2022-12-16T02:52:25.921Z,91.58
2022-12-16T02:54:57.159Z,91.69
2022-12-16T02:57:42.303Z,91.36
2022-12-16T03:00:13.678Z,91.37
2022-12-16T03:02:54.263Z,91.39
2022-12-16T03:05:26.479Z,91.42
2022-12-16T03:07:57.651Z,91.56
2022-12-16T03:10:30.199Z,91.67
2022-12-16T03:13:02.556Z,91.41
2022-12-16T03:15:35.095Z,91.49
2022-12-16T03:18:07.780Z,91.32
2022-12-16T03:20:41.383Z,91.30
2022-12-16T03:23:13.929Z,91.35
2022-12-16T03:25:45.096Z,91.62
2022-12-16T03:28:25.050Z,91.63
2022-12-16T03:31:02.811Z,91.50
2022-12-16T03:33:38.344Z,91.53
2022-12-16T03:36:11.386Z,91.64
2022-12-16T03:38:41.524Z,91.76
2022-12-16T03:41:10.429Z,91.55
2022-12-16T03:43:41.154Z,91.70
2022-12-16T03:46:11.388Z,91.75
2022-12-16T03:48:47.378Z,91.40
2022-12-16T03:51:15.930Z,91.98
2022-12-16T03:53:44.357Z,91.82
2022-12-16T03:56:13.408Z,91.69
2022-12-16T03:58:41.840Z,92.01
2022-12-16T04:01:11.060Z,91.91
2022-12-16T04:03:39.755Z,91.73
2022-12-16T04:06:09.680Z,91.65
2022-12-16T04:08:38.152Z,91.79
2022-12-16T04:11:24.003Z,91.85
2022-12-16T04:14:09.902Z,91.85
2022-12-16T04:17:10.394Z,91.81
2022-12-16T04:19:57.183Z,91.85
2022-12-16T04:22:48.129Z,91.94
2022-12-16T04:25:19.857Z,91.98
2022-12-16T04:27:48.176Z,91.88
2022-12-16T04:30:23.072Z,91.69
2022-12-16T04:33:12.523Z,91.73
2022-12-16T04:35:58.432Z,91.69
2022-12-16T04:38:46.233Z,91.69
2022-12-16T04:41:32.243Z,91.61
2022-12-16T04:44:18.477Z,91.47
2022-12-16T04:47:04.691Z,91.35
2022-12-16T04:49:50.676Z,91.21
2022-12-16T04:52:36.793Z,91.46
2022-12-16T04:55:25.204Z,91.55
2022-12-16T04:58:12.566Z,91.74
2022-12-16T05:00:59.088Z,91.67
2022-12-16T05:03:45.803Z,91.90
2022-12-16T05:06:32.312Z,91.73
2022-12-16T05:09:18.224Z,91.69
2022-12-16T05:12:05.061Z,91.78
2022-12-16T05:14:50.991Z,91.61
2022-12-16T05:17:36.856Z,91.68
2022-12-16T05:20:23.614Z,91.62
2022-12-16T05:23:09.542Z,91.74
2022-12-16T05:25:55.397Z,91.61
2022-12-16T05:28:42.512Z,91.73
2022-12-16T05:31:28.587Z,91.60
2022-12-16T05:34:14.481Z,91.73
2022-12-16T05:37:11.929Z,91.62
2022-12-16T05:39:57.834Z,91.66
2022-12-16T05:42:46.611Z,91.66
2022-12-16T05:45:48.523Z,91.74
2022-12-16T05:48:36.788Z,91.59
2022-12-16T05:51:22.659Z,91.84
2022-12-16T05:54:08.622Z,91.76
2022-12-16T05:56:54.397Z,91.58
2022-12-16T05:59:39.455Z,91.64
2022-12-16T06:02:26.920Z,91.56
2022-12-16T06:05:12.886Z,91.93
2022-12-16T06:07:59.145Z,91.51
2022-12-16T06:10:45.017Z,91.55
2022-12-16T06:13:39.323Z,91.67
2022-12-16T06:16:25.730Z,91.77
2022-12-16T06:19:13.004Z,91.93
2022-12-16T06:21:58.969Z,91.72
2022-12-16T06:24:45.056Z,91.94
2022-12-16T06:27:30.977Z,91.80
2022-12-16T06:30:16.993Z,91.95
2022-12-16T06:33:09.050Z,91.79
2022-12-16T06:35:56.199Z,91.78
2022-12-16T06:38:43.844Z,92.07
2022-12-16T06:41:29.824Z,91.85
2022-12-16T06:44:15.910Z,92.17
2022-12-16T06:47:01.836Z,92.11
2022-12-16T06:49:47.862Z,91.86
2022-12-16T06:52:35.230Z,91.84
2022-12-16T06:55:21.225Z,92.21
2022-12-16T06:58:10.097Z,92.04
2022-12-16T07:00:56.139Z,92.07
2022-12-16T07:03:42.913Z,92.00
2022-12-16T07:06:25.238Z,92.04
2022-12-16T07:09:12.490Z,92.22
2022-12-16T07:11:58.465Z,91.97
2022-12-16T07:14:44.237Z,91.86
2022-12-16T07:17:30.242Z,91.80
2022-12-16T07:20:16.306Z,92.24
2022-12-16T07:23:10.652Z,92.09
2022-12-16T07:26:00.501Z,91.90
2022-12-16T07:28:46.295Z,91.75
2022-12-16T07:31:32.480Z,91.86
2022-12-16T07:34:18.607Z,91.66
2022-12-16T07:37:04.397Z,91.94
2022-12-16T07:39:54.891Z,91.84
2022-12-16T07:42:42.658Z,92.10
2022-12-16T07:45:29.744Z,91.82
2022-12-16T07:48:15.438Z,91.74
2022-12-16T07:51:01.400Z,91.76
2022-12-16T07:53:47.216Z,91.75
2022-12-16T07:56:35.853Z,91.82
2022-12-16T07:59:26.190Z,92.13
2022-12-16T08:02:12.410Z,92.30
2022-12-16T08:04:58.269Z,91.82
2022-12-16T08:07:44.181Z,92.18
2022-12-16T08:10:30.058Z,91.93
2022-12-16T08:16:27.094Z,91.69
2022-12-16T08:19:13.054Z,91.89
2022-12-16T08:21:59.021Z,91.78
2022-12-16T08:24:51.364Z,91.68
2022-12-16T08:27:40.279Z,91.66
2022-12-16T08:30:27.321Z,91.46
2022-12-16T08:33:19.211Z,91.39
2022-12-16T08:36:17.147Z,91.65
2022-12-16T08:39:03.069Z,91.48
2022-12-16T08:41:49.167Z,91.64
2022-12-16T08:44:34.980Z,91.74
2022-12-16T08:47:21.106Z,91.68
2022-12-16T08:50:08.638Z,91.62
2022-12-16T08:52:54.804Z,91.51
2022-12-16T08:55:40.706Z,91.38
2022-12-16T08:58:26.791Z,91.63
2022-12-16T09:01:12.742Z,91.56
2022-12-16T09:03:58.860Z,91.39
2022-12-16T09:06:46.177Z,91.51
2022-12-16T09:09:32.001Z,91.26
2022-12-16T09:12:18.099Z,91.61
2022-12-16T09:15:04.142Z,91.59
2022-12-16T09:17:50.105Z,91.42
2022-12-16T09:20:36.913Z,91.33
2022-12-16T09:23:24.653Z,91.32
2022-12-16T09:26:10.608Z,91.29
2022-12-16T09:28:56.571Z,91.62
2022-12-16T09:31:42.459Z,91.26
2022-12-16T09:34:28.321Z,91.70
2022-12-16T09:37:14.468Z,91.73
2022-12-16T09:40:01.726Z,91.68
2022-12-16T09:42:55.389Z,91.90
2022-12-16T09:45:45.142Z,92.10
2022-12-16T09:48:37.962Z,92.27
2022-12-16T09:51:26.832Z,92.24
2022-12-16T09:54:14.598Z,92.15
2022-12-16T09:57:04.050Z,92.30
2022-12-16T09:59:54.069Z,92.30
2022-12-16T10:02:49.991Z,92.44
2022-12-16T10:05:44.406Z,92.37
2022-12-16T10:08:40.897Z,92.56
2022-12-16T10:11:32.774Z,92.75
2022-12-16T10:14:27.258Z,92.82
2022-12-16T10:17:23.947Z,92.64
2022-12-16T10:20:19.085Z,92.83
2022-12-16T10:23:12.192Z,92.62
2022-12-16T10:26:10.387Z,92.77
2022-12-16T10:29:03.962Z,92.72
2022-12-16T10:31:52.089Z,92.75
2022-12-16T10:34:47.123Z,92.87
2022-12-16T10:37:40.603Z,92.82
2022-12-16T10:40:36.742Z,92.94
2022-12-16T10:43:29.781Z,92.95
2022-12-16T10:46:18.978Z,92.50
2022-12-16T10:49:06.270Z,92.68
2022-12-16T10:51:52.210Z,92.48
2022-12-16T10:54:52.163Z,92.69
2022-12-16T10:58:00.443Z,92.41
2022-12-16T11:00:56.677Z,92.28
2022-12-16T11:03:44.869Z,92.25
2022-12-16T11:06:38.424Z,92.08
2022-12-16T11:09:35.028Z,92.06
2022-12-16T11:12:38.655Z,92.06
2022-12-16T11:15:42.171Z,92.07
2022-12-16T11:18:30.881Z,92.02
2022-12-16T11:21:35.826Z,91.86
2022-12-16T11:24:29.746Z,91.47
2022-12-16T11:27:18.139Z,91.63
2022-12-16T11:30:14.337Z,91.57
2022-12-16T11:33:05.185Z,91.34
2022-12-16T11:35:53.245Z,91.11
2022-12-16T11:38:44.284Z,91.44
2022-12-16T11:41:43.389Z,91.07
2022-12-16T11:44:37.706Z,91.34
2022-12-16T11:47:34.721Z,91.34
2022-12-16T11:50:20.698Z,90.88
2022-12-16T11:53:14.969Z,90.91
2022-12-16T11:56:11.256Z,90.75
2022-12-16T11:59:04.559Z,90.72
2022-12-16T12:01:56.549Z,90.80
2022-12-16T12:04:42.800Z,90.84
2022-12-16T12:07:46.083Z,90.73
2022-12-16T12:11:13.797Z,90.58
2022-12-16T12:14:10.655Z,90.71
2022-12-16T12:17:13.133Z,90.67
2022-12-16T12:20:07.627Z,90.69
2022-12-16T12:22:56.958Z,90.40
2022-12-16T12:25:51.674Z,90.52
2022-12-16T12:28:51.472Z,90.51
2022-12-16T12:32:04.366Z,90.79
2022-12-16T12:34:58.512Z,90.58
2022-12-16T12:37:49.367Z,90.60
2022-12-16T12:40:50.075Z,90.44
2022-12-16T12:43:48.746Z,90.37
2022-12-16T12:46:47.606Z,90.21
2022-12-16T12:49:43.192Z,90.39
2022-12-16T12:52:42.262Z,90.33
2022-12-16T12:55:36.358Z,90.23
2022-12-16T12:58:25.721Z,90.15
2022-12-16T13:01:16.754Z,90.04
2022-12-16T13:04:09.073Z,90.29
2022-12-16T13:06:56.116Z,90.16
2022-12-16T13:09:48.795Z,90.01
2022-12-16T13:12:43.422Z,90.16
2022-12-16T13:15:37.077Z,90.24
2022-12-16T13:18:43.808Z,90.18
2022-12-16T13:22:02.291Z,90.17
2022-12-16T13:24:59.086Z,90.03
2022-12-16T13:27:47.558Z,90.26
2022-12-16T13:30:42.617Z,90.22
2022-12-16T13:33:44.994Z,90.05
2022-12-16T13:36:33.951Z,89.86
2022-12-16T13:39:38.952Z,89.91
2022-12-16T13:42:25.001Z,89.90
2022-12-16T13:45:16.578Z,90.17
2022-12-16T13:48:20.493Z,89.83
2022-12-16T13:51:18.046Z,89.94
2022-12-16T13:54:11.052Z,89.83
2022-12-16T13:57:13.674Z,89.77
2022-12-16T14:00:09.102Z,89.58
2022-12-16T14:02:59.170Z,89.68
2022-12-16T14:05:49.238Z,89.76
2022-12-16T14:08:39.539Z,89.43
2022-12-16T14:11:33.574Z,89.73
2022-12-16T14:14:25.192Z,89.64
2022-12-16T14:17:14.157Z,89.86
2022-12-16T14:20:13.166Z,89.68
2022-12-16T14:23:32.387Z,89.84
2022-12-16T14:26:21.667Z,89.75
2022-12-16T14:29:07.677Z,89.78
2022-12-16T14:31:55.633Z,89.78
2022-12-16T14:34:44.924Z,90.10
2022-12-16T14:37:32.332Z,89.81
2022-12-16T14:40:18.202Z,89.92
2022-12-16T14:43:09.901Z,90.13
2022-12-16T14:46:06.505Z,90.47
2022-12-16T14:48:55.053Z,90.38
2022-12-16T14:51:45.933Z,90.02
2022-12-16T14:54:37.347Z,90.01
2022-12-16T14:57:24.637Z,89.85
2022-12-16T15:00:29.586Z,89.98
2022-12-16T15:03:18.946Z,89.79
2022-12-16T15:06:09.142Z,90.09
2022-12-16T15:09:02.267Z,89.82
2022-12-16T15:11:48.137Z,89.78
2022-12-16T15:14:36.955Z,89.94
2022-12-16T15:17:24.270Z,89.86
2022-12-16T15:20:12.282Z,89.60
2022-12-16T15:23:03.756Z,89.83
2022-12-16T15:25:50.261Z,89.98
2022-12-16T15:28:44.185Z,90.08
2022-12-16T15:31:34.611Z,90.10
2022-12-16T15:34:42.549Z,90.16
2022-12-16T15:37:36.622Z,90.03
2022-12-16T15:40:40.649Z,90.15
2022-12-16T15:43:40.224Z,90.14
2022-12-16T15:46:35.979Z,90.04
2022-12-16T15:49:23.115Z,90.03
2022-12-16T15:52:10.687Z,89.95
2022-12-16T15:55:09.629Z,89.95
2022-12-16T15:57:57.224Z,90.06
2022-12-16T16:00:44.846Z,90.13
2022-12-16T16:03:44.108Z,90.21
2022-12-16T16:06:37.293Z,89.95
2022-12-16T16:09:33.015Z,90.10
2022-12-16T16:12:18.999Z,90.18
2022-12-16T16:15:04.957Z,90.44
2022-12-16T16:17:50.953Z,90.06
2022-12-16T16:20:37.561Z,90.21
2022-12-16T16:23:23.379Z,90.83
2022-12-16T16:26:07.018Z,90.22
2022-12-16T16:28:53.456Z,90.32
2022-12-16T16:31:39.670Z,90.26
2022-12-16T16:34:25.409Z,89.85
2022-12-16T16:37:13.264Z,89.82
2022-12-16T16:39:59.270Z,90.04
2022-12-16T16:42:46.639Z,89.80
2022-12-16T16:45:33.520Z,90.30
2022-12-16T16:48:25.110Z,90.00
2022-12-16T16:51:14.497Z,89.97
2022-12-16T16:54:00.704Z,89.99
2022-12-16T16:56:49.290Z,89.81
2022-12-16T16:59:36.872Z,90.25
2022-12-16T17:02:40.262Z,89.70
2022-12-16T17:05:28.070Z,89.78
2022-12-16T17:08:13.983Z,89.89
2022-12-16T17:11:00.673Z,89.62
2022-12-16T17:13:46.581Z,89.91
2022-12-16T17:16:34.097Z,90.21
2022-12-16T17:19:20.680Z,90.08
2022-12-16T17:22:06.753Z,89.99
2022-12-16T17:24:54.296Z,90.00
2022-12-16T17:27:47.997Z,89.77
2022-12-16T17:30:36.319Z,90.05
2022-12-16T17:33:23.822Z,89.67
2022-12-16T17:36:10.842Z,89.89
2022-12-16T17:38:58.413Z,89.92
2022-12-16T17:41:45.932Z,89.67
2022-12-16T17:44:31.834Z,89.59
2022-12-16T17:47:18.056Z,89.70
2022-12-16T17:50:05.283Z,89.63
2022-12-16T17:52:51.177Z,89.39
2022-12-16T17:55:37.035Z,89.86
2022-12-16T17:58:22.925Z,89.76
2022-12-16T18:01:08.973Z,89.78
2022-12-16T18:03:54.860Z,89.64
2022-12-16T18:06:42.127Z,89.79
2022-12-16T18:09:28.336Z,89.63
2022-12-16T18:12:25.720Z,89.87
2022-12-16T18:15:12.789Z,89.68
2022-12-16T18:17:58.415Z,89.57
2022-12-16T18:20:43.460Z,89.60
2022-12-16T18:23:30.895Z,89.62
2022-12-16T18:26:18.317Z,89.54
2022-12-16T18:29:04.373Z,89.20
2022-12-16T18:31:50.374Z,89.12
2022-12-16T18:34:36.374Z,89.19
2022-12-16T18:37:23.958Z,89.95
2022-12-16T18:40:11.424Z,90.01
2022-12-16T18:42:57.185Z,89.85
2022-12-16T18:45:43.115Z,89.72
2022-12-16T18:48:29.147Z,89.55
2022-12-16T18:51:17.993Z,89.77
2022-12-16T18:54:04.450Z,89.65
2022-12-16T18:56:51.510Z,89.47
2022-12-16T18:59:58.822Z,89.71
2022-12-16T19:02:45.042Z,89.71
2022-12-16T19:05:36.016Z,89.25
2022-12-16T19:08:21.889Z,89.66
2022-12-16T19:11:13.181Z,89.63
2022-12-16T19:14:00.209Z,89.56
2022-12-16T19:16:46.266Z,89.66
2022-12-16T19:19:32.218Z,89.72
2022-12-16T19:22:20.339Z,89.07
2022-12-16T19:25:06.183Z,89.59
2022-12-16T19:27:52.274Z,89.53
2022-12-16T19:30:39.061Z,90.15
2022-12-16T19:33:25.177Z,89.43
2022-12-16T19:36:14.147Z,89.33
2022-12-16T19:39:02.747Z,89.61
2022-12-16T19:41:48.665Z,89.77
2022-12-16T19:44:34.620Z,89.97
2022-12-16T19:47:21.959Z,89.70
2022-12-16T19:50:07.766Z,89.78
2022-12-16T19:52:53.789Z,89.48
2022-12-16T19:55:42.276Z,89.66
2022-12-16T19:58:28.210Z,89.46
2022-12-16T20:01:14.235Z,89.70
2022-12-16T20:04:01.657Z,89.38
2022-12-16T20:06:47.569Z,89.50
2022-12-16T20:09:33.586Z,89.52
2022-12-16T20:12:19.402Z,89.41
2022-12-16T20:15:05.430Z,89.36
2022-12-16T20:17:56.318Z,89.29
2022-12-16T20:20:43.966Z,89.08
2022-12-16T20:23:29.877Z,88.92
2022-12-16T20:26:17.791Z,89.12
2022-12-16T20:29:04.328Z,89.06
2022-12-16T20:31:50.813Z,88.97
2022-12-16T20:34:37.570Z,88.73
2022-12-16T20:37:24.929Z,88.63
2022-12-16T20:40:11.007Z,88.75
2022-12-16T20:42:56.872Z,89.04
2022-12-16T20:45:42.590Z,89.04
2022-12-16T20:48:32.535Z,88.95
2022-12-16T20:51:26.157Z,89.28
2022-12-16T20:54:14.150Z,89.01
2022-12-16T20:57:00.749Z,89.33
2022-12-16T20:59:46.775Z,89.13
2022-12-16T21:05:38.974Z,88.79
2022-12-16T21:08:25.029Z,88.94
2022-12-16T21:11:16.331Z,89.00
2022-12-16T21:14:02.366Z,88.72
2022-12-16T21:16:48.394Z,89.00
2022-12-16T21:19:34.501Z,88.51
2022-12-16T21:22:20.046Z,88.98
2022-12-16T21:25:06.084Z,88.65
2022-12-16T21:27:53.625Z,88.74
2022-12-16T21:30:41.426Z,88.33
2022-12-16T21:33:35.082Z,88.79
2022-12-16T21:36:20.973Z,88.77
2022-12-16T21:39:07.032Z,88.83
2022-12-16T21:41:52.914Z,88.62
2022-12-16T21:44:43.419Z,88.56
2022-12-16T21:47:29.409Z,88.28
2022-12-16T21:50:15.495Z,88.13
2022-12-16T21:53:01.681Z,88.29
2022-12-16T21:55:47.842Z,88.14
2022-12-16T21:58:33.722Z,88.54
2022-12-16T22:01:25.500Z,88.46
2022-12-16T22:04:11.837Z,88.75
2022-12-16T22:06:57.884Z,88.52
2022-12-16T22:09:43.809Z,89.04
2022-12-16T22:12:29.772Z,88.89
2022-12-16T22:15:15.749Z,89.11
2022-12-16T22:18:03.080Z,88.97
2022-12-16T22:20:49.054Z,89.43
2022-12-16T22:23:34.918Z,89.20
2022-12-16T22:26:21.229Z,88.82
2022-12-16T22:29:07.193Z,88.90
2022-12-16T22:31:55.077Z,88.72
2022-12-16T22:34:43.606Z,88.55
2022-12-16T22:37:29.512Z,88.72
2022-12-16T22:40:15.501Z,88.54
2022-12-16T22:43:00.842Z,88.67
2022-12-16T22:45:46.856Z,88.89
2022-12-16T22:48:32.744Z,88.90
2022-12-16T22:51:20.030Z,88.96
2022-12-16T22:54:07.076Z,89.11
2022-12-16T22:56:52.953Z,88.83
2022-12-16T22:59:42.237Z,88.58
2022-12-16T23:02:28.245Z,88.95
2022-12-16T23:05:14.162Z,89.15
2022-12-16T23:08:01.233Z,88.91
2022-12-16T23:10:47.136Z,89.04
2022-12-16T23:13:32.942Z,88.58
2022-12-16T23:16:19.073Z,89.14
2022-12-16T23:19:05.107Z,88.63
2022-12-16T23:21:50.889Z,88.81
2022-12-16T23:24:38.300Z,88.53
2022-12-16T23:27:24.153Z,88.66
2022-12-16T23:30:10.216Z,88.26
2022-12-16T23:32:56.150Z,88.67
2022-12-16T23:35:42.422Z,88.82
2022-12-16T23:38:28.805Z,88.88
2022-12-16T23:41:16.993Z,88.47
2022-12-16T23:44:04.053Z,88.66
2022-12-16T23:46:50.023Z,88.35
2022-12-16T23:49:36.054Z,88.14
2022-12-16T23:52:21.912Z,88.60
2022-12-16T23:55:07.774Z,88.34
2022-12-16T23:58:06.489Z,88.56
